createdAt,value
2022-09-11T00:00:16.161Z,16.54
2022-09-11T00:01:16.192Z,16.55
2022-09-11T00:02:16.261Z,16.54
2022-09-11T00:03:16.252Z,16.51
2022-09-11T00:04:16.277Z,16.51
2022-09-11T00:05:16.307Z,16.48
2022-09-11T00:06:27.538Z,16.44
2022-09-11T00:07:16.362Z,16.47
2022-09-11T00:08:16.393Z,16.48
2022-09-11T00:09:16.439Z,16.47
2022-09-11T00:10:16.448Z,16.52
2022-09-11T00:11:16.482Z,16.49
2022-09-11T00:12:16.508Z,16.49
2022-09-11T00:13:16.543Z,16.49
2022-09-11T00:14:16.563Z,16.45
2022-09-11T00:15:16.595Z,16.40
2022-09-11T00:16:16.680Z,16.42
2022-09-11T00:17:16.651Z,16.39
2022-09-11T00:18:16.678Z,16.33
2022-09-11T00:19:16.709Z,16.30
2022-09-11T00:20:16.737Z,16.37
2022-09-11T00:21:16.765Z,16.32
2022-09-11T00:22:16.793Z,16.34
2022-09-11T00:23:16.824Z,16.29
2022-09-11T00:24:16.852Z,16.42
2022-09-11T00:25:16.900Z,16.51
2022-09-11T00:26:16.908Z,16.44
2022-09-11T00:27:16.939Z,16.44
2022-09-11T00:28:16.965Z,16.54
2022-09-11T00:29:16.995Z,16.44
2022-09-11T00:30:17.026Z,16.51
2022-09-11T00:31:17.101Z,16.55
2022-09-11T00:32:17.081Z,16.57
2022-09-11T00:33:17.113Z,16.59
2022-09-11T00:34:17.138Z,16.66
2022-09-11T00:35:17.170Z,16.63
2022-09-11T00:36:17.197Z,16.66
2022-09-11T00:37:17.226Z,16.62
2022-09-11T00:38:17.580Z,16.63
2022-09-11T00:39:17.284Z,16.63
2022-09-11T00:40:17.312Z,16.66
2022-09-11T00:41:17.362Z,16.65
2022-09-11T00:42:17.368Z,16.58
2022-09-11T00:43:17.399Z,16.69
2022-09-11T00:44:17.429Z,16.73
2022-09-11T00:45:17.459Z,16.73
2022-09-11T00:46:17.484Z,16.77
2022-09-11T00:47:17.515Z,16.73
2022-09-11T00:48:17.542Z,16.76
2022-09-11T00:49:17.572Z,16.76
2022-09-11T00:50:19.439Z,16.81
2022-09-11T00:51:17.630Z,16.80
2022-09-11T00:52:17.658Z,16.73
2022-09-11T00:53:17.687Z,16.90
2022-09-11T00:54:17.715Z,16.90
2022-09-11T00:55:17.745Z,16.91
2022-09-11T00:56:17.772Z,16.87
2022-09-11T00:57:17.823Z,16.82
2022-09-11T00:58:17.830Z,16.82
2022-09-11T00:59:17.861Z,16.81
2022-09-11T01:00:17.889Z,16.84
2022-09-11T01:01:18.032Z,16.76
2022-09-11T01:02:17.946Z,16.87
2022-09-11T01:03:17.976Z,16.80
2022-09-11T01:04:18.008Z,16.87
2022-09-11T01:05:18.035Z,16.82
2022-09-11T01:06:18.061Z,16.84
2022-09-11T01:07:18.093Z,16.92
2022-09-11T01:08:18.121Z,16.90
2022-09-11T01:09:18.150Z,16.88
2022-09-11T01:10:18.177Z,16.90
2022-09-11T01:11:18.211Z,16.90
2022-09-11T01:12:18.236Z,16.97
2022-09-11T01:13:18.284Z,16.88
2022-09-11T01:14:18.293Z,16.90
2022-09-11T01:15:18.325Z,16.92
2022-09-11T01:16:18.386Z,16.94
2022-09-11T01:17:18.381Z,16.91
2022-09-11T01:18:18.408Z,16.97
2022-09-11T01:19:18.440Z,16.94
2022-09-11T01:20:18.472Z,16.97
2022-09-11T01:21:18.497Z,16.88
2022-09-11T01:22:18.524Z,16.99
2022-09-11T01:23:18.557Z,16.91
2022-09-11T01:24:18.584Z,16.91
2022-09-11T01:25:18.613Z,16.95
2022-09-11T01:26:18.640Z,16.92
2022-09-11T01:27:18.672Z,16.92
2022-09-11T01:28:18.699Z,16.91
2022-09-11T01:29:18.748Z,16.88
2022-09-11T01:30:18.756Z,16.94
2022-09-11T01:31:18.828Z,16.91
2022-09-11T01:32:18.819Z,16.92
2022-09-11T01:33:18.844Z,16.90
2022-09-11T01:34:18.873Z,16.97
2022-09-11T01:35:18.902Z,16.84
2022-09-11T01:36:18.932Z,16.94
2022-09-11T01:37:18.959Z,16.85
2022-09-11T01:38:18.990Z,16.85
2022-09-11T01:39:19.019Z,16.85
2022-09-11T01:40:19.048Z,16.90
2022-09-11T01:41:19.079Z,16.97
2022-09-11T01:42:19.113Z,16.99
2022-09-11T01:43:19.134Z,16.99
2022-09-11T01:44:19.164Z,16.92
2022-09-11T01:45:19.211Z,16.94
2022-09-11T01:46:19.222Z,16.97
2022-09-11T01:47:19.252Z,16.94
2022-09-11T01:48:19.281Z,16.92
2022-09-11T01:49:19.307Z,16.94
2022-09-11T01:50:19.337Z,16.90
2022-09-11T01:51:19.364Z,16.94
2022-09-11T01:52:19.394Z,16.97
2022-09-11T01:53:19.421Z,16.97
2022-09-11T01:54:19.451Z,17.03
2022-09-11T01:55:19.480Z,16.97
2022-09-11T01:56:19.510Z,16.95
2022-09-11T01:57:19.537Z,16.92
2022-09-11T01:58:19.567Z,16.95
2022-09-11T01:59:19.596Z,16.99
2022-09-11T02:00:19.627Z,16.97
2022-09-11T02:01:19.673Z,17.00
2022-09-11T02:02:19.753Z,17.05
2022-09-11T02:03:19.711Z,17.06
2022-09-11T02:04:19.742Z,17.06
2022-09-11T02:05:19.774Z,17.09
2022-09-11T02:06:19.801Z,17.05
2022-09-11T02:07:19.829Z,17.09
2022-09-11T02:08:19.858Z,16.91
2022-09-11T02:09:19.884Z,16.99
2022-09-11T02:10:19.916Z,16.94
2022-09-11T02:11:19.949Z,17.03
2022-09-11T02:12:19.973Z,17.09
2022-09-11T02:13:20.001Z,17.13
2022-09-11T02:14:20.032Z,17.05
2022-09-11T02:15:20.060Z,17.07
2022-09-11T02:16:20.169Z,17.09
2022-09-11T02:17:20.137Z,16.94
2022-09-11T02:18:20.147Z,17.06
2022-09-11T02:19:20.176Z,17.03
2022-09-11T02:20:20.207Z,16.94
2022-09-11T02:21:20.233Z,16.94
2022-09-11T02:22:20.264Z,16.97
2022-09-11T02:23:20.291Z,16.97
2022-09-11T02:24:20.324Z,17.03
2022-09-11T02:25:20.349Z,16.91
2022-09-11T02:26:20.384Z,16.91
2022-09-11T02:27:20.408Z,16.95
2022-09-11T02:28:20.441Z,16.95
2022-09-11T02:29:20.467Z,16.92
2022-09-11T02:30:20.497Z,17.00
2022-09-11T02:31:20.575Z,16.92
2022-09-11T02:32:20.555Z,16.94
2022-09-11T02:33:20.600Z,16.95
2022-09-11T02:34:20.613Z,16.91
2022-09-11T02:35:20.640Z,16.82
2022-09-11T02:36:20.674Z,16.90
2022-09-11T02:37:20.697Z,16.88
2022-09-11T02:38:20.730Z,16.85
2022-09-11T02:39:20.756Z,16.91
2022-09-11T02:40:20.792Z,16.97
2022-09-11T02:41:20.816Z,16.91
2022-09-11T02:42:20.848Z,16.97
2022-09-11T02:43:20.872Z,16.97
2022-09-11T02:44:20.903Z,16.94
2022-09-11T02:45:20.961Z,16.94
2022-09-11T02:46:20.961Z,16.94
2022-09-11T02:47:20.989Z,16.94
2022-09-11T02:48:21.019Z,16.99
2022-09-11T02:49:21.066Z,16.91
2022-09-11T02:50:21.077Z,16.94
2022-09-11T02:51:21.105Z,16.92
2022-09-11T02:52:21.135Z,16.97
2022-09-11T02:53:21.162Z,16.88
2022-09-11T02:54:21.192Z,16.90
2022-09-11T02:55:21.220Z,16.87
2022-09-11T02:56:21.251Z,16.87
2022-09-11T02:57:21.277Z,16.84
2022-09-11T02:58:21.308Z,16.99
2022-09-11T02:59:21.334Z,16.91
2022-09-11T03:00:21.369Z,16.91
2022-09-11T03:01:21.395Z,16.91
2022-09-11T03:02:21.465Z,16.90
2022-09-11T03:03:21.450Z,16.90
2022-09-11T03:04:21.480Z,16.87
2022-09-11T03:05:21.523Z,16.92
2022-09-11T03:06:21.537Z,16.97
2022-09-11T03:07:21.566Z,16.90
2022-09-11T03:08:21.595Z,16.90
2022-09-11T03:09:21.624Z,16.91
2022-09-11T03:10:21.654Z,16.87
2022-09-11T03:11:21.680Z,16.92
2022-09-11T03:12:21.711Z,16.90
2022-09-11T03:13:21.738Z,16.88
2022-09-11T03:14:21.768Z,16.84
2022-09-11T03:15:21.796Z,16.99
2022-09-11T03:16:21.879Z,16.97
2022-09-11T03:17:23.065Z,16.92
2022-09-11T03:18:21.886Z,16.92
2022-09-11T03:19:21.909Z,16.87
2022-09-11T03:20:21.977Z,16.85
2022-09-11T03:21:21.988Z,16.94
2022-09-11T03:22:21.999Z,16.95
2022-09-11T03:23:22.025Z,16.97
2022-09-11T03:24:22.056Z,16.88
2022-09-11T03:25:22.083Z,16.85
2022-09-11T03:26:22.114Z,16.90
2022-09-11T03:27:22.142Z,16.87
2022-09-11T03:28:22.172Z,16.87
2022-09-11T03:29:22.199Z,16.81
2022-09-11T03:30:22.229Z,16.81
2022-09-11T03:31:22.317Z,16.88
2022-09-11T03:32:22.288Z,16.84
2022-09-11T03:33:22.319Z,16.87
2022-09-11T03:34:22.344Z,16.88
2022-09-11T03:35:22.373Z,16.82
2022-09-11T03:36:22.403Z,16.91
2022-09-11T03:37:22.448Z,16.73
2022-09-11T03:38:22.460Z,16.77
2022-09-11T03:39:22.488Z,16.87
2022-09-11T03:40:22.518Z,16.88
2022-09-11T03:41:22.544Z,16.76
2022-09-11T03:42:22.575Z,16.82
2022-09-11T03:43:22.602Z,16.91
2022-09-11T03:44:22.633Z,16.88
2022-09-11T03:45:22.685Z,16.91
2022-09-11T03:46:22.690Z,16.95
2022-09-11T03:47:22.719Z,16.92
2022-09-11T03:48:22.752Z,16.84
2022-09-11T03:49:22.775Z,16.87
2022-09-11T03:50:26.034Z,16.82
2022-09-11T03:51:22.835Z,16.95
2022-09-11T03:52:22.863Z,16.92
2022-09-11T03:53:22.908Z,16.81
2022-09-11T03:54:22.923Z,16.73
2022-09-11T03:55:22.949Z,16.84
2022-09-11T03:56:22.979Z,16.82
2022-09-11T03:57:23.004Z,16.84
2022-09-11T03:58:23.035Z,16.77
2022-09-11T03:59:23.065Z,16.72
2022-09-11T04:00:23.095Z,16.73
2022-09-11T04:01:23.160Z,16.84
2022-09-11T04:02:23.191Z,16.84
2022-09-11T04:03:23.180Z,16.77
2022-09-11T04:04:23.209Z,16.77
2022-09-11T04:05:23.236Z,16.74
2022-09-11T04:06:23.265Z,16.70
2022-09-11T04:07:23.293Z,16.67
2022-09-11T04:08:23.321Z,16.77
2022-09-11T04:09:23.370Z,16.77
2022-09-11T04:10:23.380Z,16.77
2022-09-11T04:11:23.408Z,16.73
2022-09-11T04:12:23.438Z,16.69
2022-09-11T04:13:23.468Z,16.76
2022-09-11T04:14:23.494Z,16.73
2022-09-11T04:15:23.523Z,16.73
2022-09-11T04:16:23.625Z,16.73
2022-09-11T04:17:23.580Z,16.81
2022-09-11T04:18:23.643Z,16.72
2022-09-11T04:19:23.640Z,16.74
2022-09-11T04:20:23.669Z,16.81
2022-09-11T04:21:23.695Z,16.85
2022-09-11T04:22:23.725Z,16.84
2022-09-11T04:23:23.753Z,16.81
2022-09-11T04:24:23.784Z,16.81
2022-09-11T04:25:23.827Z,16.85
2022-09-11T04:26:23.840Z,16.72
2022-09-11T04:27:23.866Z,16.80
2022-09-11T04:28:23.898Z,16.74
2022-09-11T04:29:23.924Z,16.73
2022-09-11T04:30:23.955Z,16.90
2022-09-11T04:31:24.010Z,16.77
2022-09-11T04:32:24.012Z,16.80
2022-09-11T04:33:24.040Z,16.82
2022-09-11T04:34:24.070Z,16.87
2022-09-11T04:35:24.096Z,16.84
2022-09-11T04:36:24.128Z,16.85
2022-09-11T04:37:24.154Z,16.81
2022-09-11T04:38:24.185Z,16.90
2022-09-11T04:39:24.210Z,16.76
2022-09-11T04:40:24.243Z,16.87
2022-09-11T04:41:24.288Z,16.80
2022-09-11T04:42:24.302Z,16.87
2022-09-11T04:43:24.330Z,16.91
2022-09-11T04:44:24.359Z,16.91
2022-09-11T04:45:24.413Z,16.87
2022-09-11T04:46:24.414Z,16.91
2022-09-11T04:47:24.444Z,16.99
2022-09-11T04:48:24.485Z,16.91
2022-09-11T04:49:24.499Z,16.90
2022-09-11T04:50:24.530Z,16.88
2022-09-11T04:51:24.558Z,16.91
2022-09-11T04:52:24.590Z,16.88
2022-09-11T04:53:24.616Z,16.92
2022-09-11T04:54:24.648Z,16.95
2022-09-11T04:55:24.674Z,16.87
2022-09-11T04:56:24.704Z,16.91
2022-09-11T04:57:24.752Z,16.88
2022-09-11T04:58:24.763Z,16.94
2022-09-11T04:59:24.792Z,16.88
2022-09-11T05:00:24.820Z,16.88
2022-09-11T05:01:24.848Z,16.95
2022-09-11T05:02:24.946Z,16.90
2022-09-11T05:03:24.916Z,16.92
2022-09-11T05:04:26.448Z,16.97
2022-09-11T05:05:24.963Z,16.97
2022-09-11T05:06:25.008Z,16.91
2022-09-11T05:07:25.027Z,16.85
2022-09-11T05:08:25.073Z,16.95
2022-09-11T05:09:25.081Z,16.85
2022-09-11T05:10:25.130Z,16.88
2022-09-11T05:11:25.136Z,16.94
2022-09-11T05:12:25.168Z,16.91
2022-09-11T05:13:25.214Z,16.91
2022-09-11T05:14:25.225Z,16.91
2022-09-11T05:15:25.253Z,16.84
2022-09-11T05:16:25.309Z,16.91
2022-09-11T05:17:25.310Z,16.80
2022-09-11T05:18:25.541Z,16.88
2022-09-11T05:19:25.369Z,16.82
2022-09-11T05:20:25.401Z,16.90
2022-09-11T05:21:25.424Z,16.87
2022-09-11T05:22:25.456Z,16.82
2022-09-11T05:23:25.485Z,16.81
2022-09-11T05:24:25.515Z,16.72
2022-09-11T05:25:25.541Z,16.66
2022-09-11T05:26:25.571Z,16.62
2022-09-11T05:27:25.599Z,16.67
2022-09-11T05:28:25.629Z,16.63
2022-09-11T05:29:28.356Z,16.66
2022-09-11T05:30:25.689Z,16.72
2022-09-11T05:31:25.795Z,16.65
2022-09-11T05:32:25.746Z,16.65
2022-09-11T05:33:25.773Z,16.69
2022-09-11T05:34:25.802Z,16.66
2022-09-11T05:35:30.360Z,16.65
2022-09-11T05:36:25.860Z,16.63
2022-09-11T05:37:25.886Z,16.67
2022-09-11T05:38:25.930Z,16.77
2022-09-11T05:39:25.946Z,16.67
2022-09-11T05:40:25.975Z,16.70
2022-09-11T05:41:26.002Z,16.65
2022-09-11T05:42:26.032Z,16.67
2022-09-11T05:43:26.061Z,16.69
2022-09-11T05:44:26.091Z,16.57
2022-09-11T05:45:26.186Z,16.67
2022-09-11T05:46:26.152Z,16.54
2022-09-11T05:47:26.175Z,16.63
2022-09-11T05:48:26.206Z,16.65
2022-09-11T05:49:26.234Z,16.57
2022-09-11T05:50:26.262Z,16.62
2022-09-11T05:51:26.292Z,16.63
2022-09-11T05:52:26.320Z,16.69
2022-09-11T05:53:26.350Z,16.67
2022-09-11T05:54:26.376Z,16.63
2022-09-11T05:55:26.408Z,16.63
2022-09-11T05:56:26.437Z,16.66
2022-09-11T05:57:26.463Z,16.62
2022-09-11T05:58:26.492Z,16.67
2022-09-11T05:59:26.521Z,16.63
2022-09-11T06:00:26.551Z,16.73
2022-09-11T06:01:26.649Z,16.76
2022-09-11T06:02:26.635Z,16.67
2022-09-11T06:03:26.638Z,16.67
2022-09-11T06:04:26.666Z,16.62
2022-09-11T06:05:26.694Z,16.62
2022-09-11T06:06:26.722Z,16.65
2022-09-11T06:07:26.764Z,16.62
2022-09-11T06:08:26.780Z,16.66
2022-09-11T06:09:26.810Z,16.69
2022-09-11T06:10:26.883Z,16.67
2022-09-11T06:11:26.868Z,16.67
2022-09-11T06:12:26.896Z,16.62
2022-09-11T06:13:26.925Z,16.74
2022-09-11T06:14:26.953Z,16.63
2022-09-11T06:15:45.587Z,16.67
2022-09-11T06:16:27.073Z,16.74
2022-09-11T06:17:27.062Z,16.74
2022-09-11T06:18:27.070Z,16.81
2022-09-11T06:19:27.099Z,16.85
2022-09-11T06:20:27.134Z,16.84
2022-09-11T06:21:27.158Z,16.87
2022-09-11T06:22:27.185Z,16.90
2022-09-11T06:23:27.214Z,16.87
2022-09-11T06:24:27.242Z,16.85
2022-09-11T06:25:27.271Z,16.81
2022-09-11T06:26:27.299Z,16.81
2022-09-11T06:27:27.335Z,16.82
2022-09-11T06:28:27.357Z,16.90
2022-09-11T06:29:27.386Z,16.90
2022-09-11T06:30:27.498Z,16.87
2022-09-11T06:31:27.444Z,16.87
2022-09-11T06:32:27.472Z,16.84
2022-09-11T06:33:27.518Z,16.91
2022-09-11T06:34:27.528Z,16.82
2022-09-11T06:35:27.560Z,16.84
2022-09-11T06:36:27.587Z,16.88
2022-09-11T06:37:27.617Z,16.82
2022-09-11T06:38:27.645Z,16.97
2022-09-11T06:39:27.681Z,16.90
2022-09-11T06:40:27.703Z,16.97
2022-09-11T06:41:27.733Z,16.95
2022-09-11T06:42:27.760Z,17.02
2022-09-11T06:43:27.789Z,16.90
2022-09-11T06:44:27.817Z,16.87
2022-09-11T06:45:27.847Z,16.92
2022-09-11T06:46:27.876Z,16.91
2022-09-11T06:47:27.907Z,16.87
2022-09-11T06:48:27.934Z,16.88
2022-09-11T06:49:27.983Z,16.82
2022-09-11T06:50:27.990Z,16.84
2022-09-11T06:51:28.025Z,16.88
2022-09-11T06:52:28.077Z,16.88
2022-09-11T06:53:28.079Z,16.97
2022-09-11T06:54:28.109Z,16.97
2022-09-11T06:55:28.139Z,16.99
2022-09-11T06:56:28.167Z,17.07
2022-09-11T06:57:28.196Z,17.21
2022-09-11T06:58:28.224Z,17.17
2022-09-11T06:59:28.254Z,17.17
2022-09-11T07:00:28.282Z,17.21
2022-09-11T07:01:28.409Z,17.31
2022-09-11T07:02:28.338Z,17.24
2022-09-11T07:03:28.370Z,17.28
2022-09-11T07:04:28.397Z,17.30
2022-09-11T07:05:28.445Z,17.22
2022-09-11T07:06:28.455Z,17.31
2022-09-11T07:07:28.487Z,17.25
2022-09-11T07:08:28.514Z,17.20
2022-09-11T07:09:28.544Z,17.21
2022-09-11T07:10:28.572Z,17.24
2022-09-11T07:11:28.603Z,17.15
2022-09-11T07:12:28.629Z,17.18
2022-09-11T07:13:28.662Z,17.21
2022-09-11T07:14:28.689Z,17.15
2022-09-11T07:15:28.720Z,17.15
2022-09-11T07:16:28.802Z,17.24
2022-09-11T07:17:28.778Z,17.25
2022-09-11T07:18:28.815Z,17.22
2022-09-11T07:19:28.837Z,17.21
2022-09-11T07:20:28.866Z,17.21
2022-09-11T07:21:28.912Z,17.25
2022-09-11T07:22:28.922Z,17.28
2022-09-11T07:23:28.955Z,17.36
2022-09-11T07:24:28.982Z,17.35
2022-09-11T07:25:29.012Z,17.39
2022-09-11T07:26:29.040Z,17.36
2022-09-11T07:27:29.071Z,17.31
2022-09-11T07:28:29.099Z,17.32
2022-09-11T07:29:29.131Z,17.39
2022-09-11T07:30:29.179Z,17.35
2022-09-11T07:31:29.190Z,17.38
2022-09-11T07:32:29.218Z,17.42
2022-09-11T07:33:29.249Z,17.46
2022-09-11T07:34:29.274Z,17.54
2022-09-11T07:35:29.307Z,17.50
2022-09-11T07:36:29.333Z,17.47
2022-09-11T07:37:29.382Z,17.50
2022-09-11T07:38:29.392Z,17.52
2022-09-11T07:39:29.423Z,17.50
2022-09-11T07:40:29.450Z,17.49
2022-09-11T07:41:29.481Z,17.43
2022-09-11T07:42:29.510Z,17.45
2022-09-11T07:43:29.542Z,17.52
2022-09-11T07:44:29.570Z,17.47
2022-09-11T07:45:29.622Z,17.52
2022-09-11T07:46:29.626Z,17.55
2022-09-11T07:47:29.657Z,17.49
2022-09-11T07:48:29.685Z,17.57
2022-09-11T07:49:29.716Z,17.46
2022-09-11T07:50:29.744Z,17.47
2022-09-11T07:51:29.791Z,17.45
2022-09-11T07:52:29.804Z,17.47
2022-09-11T07:53:29.853Z,17.54
2022-09-11T07:54:29.862Z,17.62
2022-09-11T07:55:29.894Z,17.57
2022-09-11T07:56:29.923Z,17.63
2022-09-11T07:57:29.952Z,17.62
2022-09-11T07:58:29.981Z,17.71
2022-09-11T07:59:30.011Z,17.73
2022-09-11T08:00:33.990Z,17.74
2022-09-11T08:01:30.140Z,17.73
2022-09-11T08:02:30.174Z,17.77
2022-09-11T08:03:30.130Z,17.84
2022-09-11T08:04:30.158Z,17.86
2022-09-11T08:05:30.189Z,17.86
2022-09-11T08:06:30.217Z,17.88
2022-09-11T08:07:30.248Z,17.99
2022-09-11T08:08:30.274Z,17.99
2022-09-11T08:09:30.326Z,17.98
2022-09-11T08:10:30.333Z,17.98
2022-09-11T08:11:30.368Z,17.94
2022-09-11T08:12:30.395Z,17.95
2022-09-11T08:13:30.426Z,18.01
2022-09-11T08:14:30.453Z,17.99
2022-09-11T08:15:30.485Z,18.01
2022-09-11T08:16:30.529Z,17.94
2022-09-11T08:17:30.545Z,17.94
2022-09-11T08:18:30.574Z,17.99
2022-09-11T08:19:30.603Z,17.96
2022-09-11T08:20:30.630Z,17.92
2022-09-11T08:21:30.663Z,18.03
2022-09-11T08:22:30.690Z,17.96
2022-09-11T08:23:30.722Z,17.99
2022-09-11T08:24:30.748Z,17.94
2022-09-11T08:25:30.799Z,17.96
2022-09-11T08:26:30.810Z,17.99
2022-09-11T08:27:30.842Z,17.90
2022-09-11T08:28:30.870Z,17.87
2022-09-11T08:29:30.900Z,17.86
2022-09-11T08:30:30.930Z,17.86
2022-09-11T08:31:30.995Z,17.83
2022-09-11T08:32:30.990Z,17.88
2022-09-11T08:33:31.021Z,17.90
2022-09-11T08:34:31.047Z,17.88
2022-09-11T08:35:31.079Z,17.86
2022-09-11T08:36:31.109Z,17.84
2022-09-11T08:37:31.139Z,17.88
2022-09-11T08:38:31.168Z,17.84
2022-09-11T08:39:31.199Z,17.96
2022-09-11T08:40:31.227Z,17.94
2022-09-11T08:41:31.276Z,17.96
2022-09-11T08:42:31.285Z,18.01
2022-09-11T08:43:31.318Z,17.86
2022-09-11T08:44:31.345Z,17.86
2022-09-11T08:45:31.408Z,17.88
2022-09-11T08:46:31.408Z,17.76
2022-09-11T08:47:31.437Z,17.87
2022-09-11T08:48:31.468Z,17.84
2022-09-11T08:49:31.495Z,17.77
2022-09-11T08:50:31.530Z,17.66
2022-09-11T08:51:31.554Z,17.71
2022-09-11T08:52:31.587Z,17.71
2022-09-11T08:53:31.614Z,17.80
2022-09-11T08:54:31.641Z,17.76
2022-09-11T08:55:31.675Z,17.86
2022-09-11T08:56:31.703Z,17.98
2022-09-11T08:57:31.751Z,17.95
2022-09-11T08:58:31.761Z,17.99
2022-09-11T08:59:31.791Z,17.98
2022-09-11T09:00:31.972Z,17.98
2022-09-11T09:01:31.946Z,17.95
2022-09-11T09:02:31.959Z,17.99
2022-09-11T09:03:31.919Z,17.95
2022-09-11T09:04:31.940Z,18.02
2022-09-11T09:05:31.970Z,17.96
2022-09-11T09:06:31.999Z,17.98
2022-09-11T09:07:32.032Z,18.02
2022-09-11T09:08:32.058Z,18.02
2022-09-11T09:09:35.094Z,18.06
2022-09-11T09:10:32.117Z,17.99
2022-09-11T09:11:32.150Z,18.13
2022-09-11T09:12:32.177Z,18.10
2022-09-11T09:13:32.236Z,18.03
2022-09-11T09:14:32.237Z,18.13
2022-09-11T09:15:32.271Z,18.11
2022-09-11T09:16:32.296Z,18.11
2022-09-11T09:17:32.330Z,18.16
2022-09-11T09:18:32.355Z,18.21
2022-09-11T09:19:32.386Z,18.21
2022-09-11T09:20:32.417Z,18.31
2022-09-11T09:21:32.446Z,18.24
2022-09-11T09:22:32.477Z,18.26
2022-09-11T09:23:32.567Z,18.26
2022-09-11T09:24:32.537Z,18.26
2022-09-11T09:25:32.567Z,18.23
2022-09-11T09:26:37.771Z,18.27
2022-09-11T09:27:32.626Z,18.31
2022-09-11T09:28:32.658Z,18.23
2022-09-11T09:29:32.705Z,18.19
2022-09-11T09:30:32.712Z,18.11
2022-09-11T09:31:32.745Z,18.13
2022-09-11T09:32:32.772Z,18.05
2022-09-11T09:33:32.874Z,17.94
2022-09-11T09:34:32.833Z,18.02
2022-09-11T09:35:32.865Z,17.92
2022-09-11T09:36:32.892Z,17.84
2022-09-11T09:37:32.922Z,17.87
2022-09-11T09:38:32.952Z,17.81
2022-09-11T09:39:32.983Z,17.84
2022-09-11T09:40:33.011Z,17.84
2022-09-11T09:41:33.042Z,17.90
2022-09-11T09:42:33.071Z,17.87
2022-09-11T09:43:33.103Z,17.84
2022-09-11T09:44:33.132Z,17.87
2022-09-11T09:45:33.257Z,17.98
2022-09-11T09:46:33.190Z,17.99
2022-09-11T09:47:33.223Z,17.99
2022-09-11T09:48:33.269Z,17.99
2022-09-11T09:49:33.282Z,18.06
2022-09-11T09:50:33.308Z,18.01
2022-09-11T09:51:33.340Z,18.02
2022-09-11T09:52:33.367Z,18.06
2022-09-11T09:53:33.398Z,18.13
2022-09-11T09:54:33.428Z,18.20
2022-09-11T09:55:33.459Z,18.27
2022-09-11T09:56:33.488Z,18.24
2022-09-11T09:57:33.519Z,18.32
2022-09-11T09:58:33.622Z,18.32
2022-09-11T09:59:33.580Z,18.27
2022-09-11T10:00:33.607Z,18.32
2022-09-11T10:01:33.675Z,18.44
2022-09-11T10:02:33.689Z,18.53
2022-09-11T10:03:33.699Z,18.51
2022-09-11T10:04:33.727Z,18.50
2022-09-11T10:05:33.757Z,18.59
2022-09-11T10:06:33.785Z,18.61
2022-09-11T10:07:33.816Z,18.75
2022-09-11T10:08:34.024Z,18.86
2022-09-11T10:09:33.876Z,18.94
2022-09-11T10:10:33.907Z,19.05
2022-09-11T10:11:33.935Z,19.17
2022-09-11T10:12:33.968Z,19.30
2022-09-11T10:13:33.996Z,19.45
2022-09-11T10:14:51.220Z,19.46
2022-09-11T10:15:34.070Z,19.65
2022-09-11T10:16:34.089Z,19.55
2022-09-11T10:17:34.135Z,19.72
2022-09-11T10:18:34.276Z,19.80
2022-09-11T10:19:34.178Z,19.83
2022-09-11T10:20:34.210Z,19.89
2022-09-11T10:21:34.238Z,19.87
2022-09-11T10:22:34.270Z,19.83
2022-09-11T10:23:34.309Z,19.80
2022-09-11T10:24:34.330Z,20.04
2022-09-11T10:26:21.925Z,19.98
2022-09-11T10:27:23.666Z,19.93
2022-09-11T10:28:21.985Z,19.87
2022-09-11T10:29:22.018Z,19.85
2022-09-11T10:30:22.047Z,19.86
2022-09-11T10:31:22.103Z,19.92
2022-09-11T10:32:22.111Z,20.04
2022-09-11T10:33:22.161Z,20.07
2022-09-11T10:34:22.181Z,20.10
2022-09-11T10:35:22.204Z,20.16
2022-09-11T10:36:22.231Z,20.27
2022-09-11T10:37:22.264Z,20.34
2022-09-11T10:38:22.292Z,20.35
2022-09-11T10:39:22.325Z,20.49
2022-09-11T10:40:22.356Z,20.46
2022-09-11T10:41:22.389Z,20.38
2022-09-11T10:42:22.420Z,20.34
2022-09-11T10:43:22.448Z,20.37
2022-09-11T10:44:22.484Z,20.05
2022-09-11T10:45:22.509Z,20.15
2022-09-11T10:46:22.539Z,20.07
2022-09-11T10:47:22.571Z,20.05
2022-09-11T10:48:22.601Z,20.00
2022-09-11T10:49:22.651Z,20.00
2022-09-11T10:50:22.663Z,19.87
2022-09-11T10:51:22.708Z,19.93
2022-09-11T10:52:22.723Z,19.89
2022-09-11T10:53:22.757Z,19.74
2022-09-11T10:54:22.789Z,19.75
2022-09-11T10:55:22.819Z,19.82
2022-09-11T10:56:22.861Z,19.87
2022-09-11T10:57:22.885Z,20.01
2022-09-11T10:58:22.928Z,20.08
2022-09-11T10:59:22.942Z,20.11
2022-09-11T11:00:22.972Z,20.10
2022-09-11T11:01:23.035Z,20.12
2022-09-11T11:02:23.114Z,20.26
2022-09-11T11:03:23.101Z,20.18
2022-09-11T11:04:23.096Z,20.30
2022-09-11T11:05:23.146Z,20.42
2022-09-11T11:06:23.168Z,20.60
2022-09-11T11:07:23.190Z,20.63
2022-09-11T11:08:23.218Z,20.67
2022-09-11T11:09:25.581Z,20.68
2022-09-11T11:10:23.282Z,20.57
2022-09-11T11:11:23.314Z,20.60
2022-09-11T11:12:23.346Z,20.58
2022-09-11T11:13:23.376Z,20.27
2022-09-11T11:14:23.406Z,20.15
2022-09-11T11:15:26.956Z,20.30
2022-09-11T11:16:23.468Z,20.16
2022-09-11T11:17:23.503Z,20.22
2022-09-11T11:18:23.529Z,20.29
2022-09-11T11:19:23.563Z,20.32
2022-09-11T11:20:23.590Z,20.37
2022-09-11T11:21:23.642Z,20.64
2022-09-11T11:22:23.706Z,20.72
2022-09-11T11:23:23.737Z,20.66
2022-09-11T11:24:23.714Z,20.44
2022-09-11T11:25:23.748Z,20.46
2022-09-11T11:26:23.779Z,20.42
2022-09-11T11:27:23.813Z,20.58
2022-09-11T11:28:23.839Z,20.54
2022-09-11T11:29:23.872Z,20.44
2022-09-11T11:30:23.902Z,20.48
2022-09-11T11:31:25.366Z,20.38
2022-09-11T11:32:23.961Z,20.42
2022-09-11T11:33:23.993Z,20.60
2022-09-11T11:34:24.025Z,20.60
2022-09-11T11:35:24.060Z,20.71
2022-09-11T11:36:24.085Z,20.76
2022-09-11T11:37:24.136Z,20.85
2022-09-11T11:38:24.149Z,20.94
2022-09-11T11:39:24.180Z,20.93
2022-09-11T11:40:24.211Z,20.86
2022-09-11T11:41:24.240Z,20.97
2022-09-11T11:42:24.281Z,20.93
2022-09-11T11:43:24.303Z,20.82
2022-09-11T11:44:24.345Z,20.72
2022-09-11T11:45:24.364Z,20.71
2022-09-11T11:46:24.405Z,20.82
2022-09-11T11:47:24.439Z,20.94
2022-09-11T11:51:20.400Z,21.30
2022-09-11T11:52:20.433Z,21.31
2022-09-11T11:53:20.479Z,21.30
2022-09-11T11:54:20.496Z,21.16
2022-09-11T11:55:20.526Z,21.18
2022-09-11T11:56:20.568Z,21.09
2022-09-11T11:57:20.597Z,20.93
2022-09-11T11:58:20.618Z,20.91
2022-09-11T11:59:21.263Z,21.06
2022-09-11T12:00:20.693Z,21.19
2022-09-11T12:02:20.751Z,21.55
2022-09-11T12:03:20.802Z,21.52
2022-09-11T12:04:20.814Z,21.52
2022-09-11T12:05:21.249Z,21.37
2022-09-11T12:06:20.875Z,21.23
2022-09-11T12:07:21.108Z,21.31
2022-09-11T12:09:20.976Z,21.43
2022-09-11T12:10:21.001Z,21.52
2022-09-11T12:11:21.018Z,21.67
2022-09-11T12:12:21.049Z,21.62
2022-09-11T12:13:21.078Z,21.43
2022-09-11T12:14:21.111Z,21.18
2022-09-11T12:15:21.141Z,21.16
2022-09-11T12:16:21.240Z,21.09
2022-09-11T12:17:21.201Z,21.19
2022-09-11T12:19:21.266Z,21.15
2022-09-11T12:20:21.293Z,21.21
2022-09-11T12:21:21.325Z,21.08
2022-09-11T12:22:21.353Z,21.13
2022-09-11T12:23:21.386Z,20.97
2022-09-11T12:24:21.416Z,21.06
2022-09-11T12:25:21.466Z,20.97
2022-09-11T12:26:21.476Z,20.90
2022-09-11T12:27:21.510Z,20.94
2022-09-11T12:28:21.537Z,20.96
2022-09-11T12:29:21.569Z,20.88
2022-09-11T12:30:21.599Z,20.97
2022-09-11T12:31:21.662Z,21.06
2022-09-11T12:32:21.660Z,21.18
2022-09-11T12:33:21.694Z,21.36
2022-09-11T12:34:21.733Z,21.43
2022-09-11T12:35:21.770Z,21.52
2022-09-11T12:36:22.102Z,21.45
2022-09-11T12:39:22.093Z,21.67
2022-09-11T12:40:22.123Z,21.58
2022-09-11T12:41:21.975Z,21.55
2022-09-11T12:43:22.723Z,21.46
2022-09-11T12:45:22.787Z,21.38
2022-09-11T12:46:22.099Z,21.46
2022-09-11T12:47:22.136Z,21.51
2022-09-11T12:48:22.877Z,21.55
2022-09-11T12:49:23.302Z,21.71
2022-09-11T12:50:22.224Z,21.66
2022-09-11T12:51:22.260Z,21.78
2022-09-11T12:52:22.493Z,21.78
2022-09-11T12:53:22.322Z,21.59
2022-09-11T12:54:22.347Z,21.68
2022-09-11T12:55:22.381Z,21.70
2022-09-11T12:57:22.758Z,22.07
2022-09-11T12:59:22.705Z,22.11
2022-09-11T13:04:23.781Z,22.20
2022-09-11T13:06:22.928Z,22.29
2022-09-11T13:08:23.594Z,22.31
2022-09-11T13:09:22.817Z,22.34
2022-09-11T13:10:23.151Z,22.34
2022-09-11T13:11:22.880Z,22.51